sensor_id;sensor_type;location;lat;lon;timestamp;P1;durP1;ratioP1;P2;durP2;ratioP2
21601;SDS011;10963;50.934;4.668;2023-02-15T00:01:54;65.10;;;32.83;;
21601;SDS011;10963;50.934;4.668;2023-02-15T00:04:25;72.83;;;34.93;;
21601;SDS011;10963;50.934;4.668;2023-02-15T00:07:09;71.10;;;35.33;;
21601;SDS011;10963;50.934;4.668;2023-02-15T00:09:37;73.87;;;35.73;;
21601;SDS011;10963;50.934;4.668;2023-02-15T00:12:05;70.10;;;34.00;;
21601;SDS011;10963;50.934;4.668;2023-02-15T00:14:31;60.37;;;32.73;;
21601;SDS011;10963;50.934;4.668;2023-02-15T00:16:57;66.13;;;34.93;;
21601;SDS011;10963;50.934;4.668;2023-02-15T00:19:24;63.00;;;33.20;;
21601;SDS011;10963;50.934;4.668;2023-02-15T00:21:53;60.83;;;32.03;;
21601;SDS011;10963;50.934;4.668;2023-02-15T00:24:21;60.67;;;32.27;;
21601;SDS011;10963;50.934;4.668;2023-02-15T00:26:47;67.03;;;33.50;;
21601;SDS011;10963;50.934;4.668;2023-02-15T00:29:14;65.80;;;33.63;;
21601;SDS011;10963;50.934;4.668;2023-02-15T00:31:43;68.43;;;34.90;;
21601;SDS011;10963;50.934;4.668;2023-02-15T00:34:12;66.03;;;34.87;;
21601;SDS011;10963;50.934;4.668;2023-02-15T00:36:42;72.13;;;34.37;;
21601;SDS011;10963;50.934;4.668;2023-02-15T00:39:08;65.13;;;34.23;;
21601;SDS011;10963;50.934;4.668;2023-02-15T00:41:34;75.80;;;36.43;;
21601;SDS011;10963;50.934;4.668;2023-02-15T00:44:03;73.87;;;36.07;;
21601;SDS011;10963;50.934;4.668;2023-02-15T00:46:29;76.47;;;37.30;;
21601;SDS011;10963;50.934;4.668;2023-02-15T00:48:57;65.37;;;34.40;;
21601;SDS011;10963;50.934;4.668;2023-02-15T00:51:25;71.50;;;35.10;;
21601;SDS011;10963;50.934;4.668;2023-02-15T00:53:52;70.90;;;35.17;;
21601;SDS011;10963;50.934;4.668;2023-02-15T00:56:18;69.50;;;35.17;;
21601;SDS011;10963;50.934;4.668;2023-02-15T00:58:44;72.20;;;34.93;;
21601;SDS011;10963;50.934;4.668;2023-02-15T01:01:15;71.43;;;34.80;;
21601;SDS011;10963;50.934;4.668;2023-02-15T01:03:44;76.10;;;36.63;;
21601;SDS011;10963;50.934;4.668;2023-02-15T01:06:16;75.87;;;39.27;;
21601;SDS011;10963;50.934;4.668;2023-02-15T01:08:42;76.73;;;38.90;;
21601;SDS011;10963;50.934;4.668;2023-02-15T01:11:12;77.30;;;38.27;;
21601;SDS011;10963;50.934;4.668;2023-02-15T01:13:47;86.50;;;39.37;;
21601;SDS011;10963;50.934;4.668;2023-02-15T01:16:18;84.87;;;40.10;;
21601;SDS011;10963;50.934;4.668;2023-02-15T01:18:43;80.37;;;37.77;;
21601;SDS011;10963;50.934;4.668;2023-02-15T01:21:13;82.77;;;42.60;;
21601;SDS011;10963;50.934;4.668;2023-02-15T01:23:41;83.87;;;40.93;;
21601;SDS011;10963;50.934;4.668;2023-02-15T01:26:11;85.13;;;41.07;;
21601;SDS011;10963;50.934;4.668;2023-02-15T01:28:40;76.57;;;39.00;;
21601;SDS011;10963;50.934;4.668;2023-02-15T01:31:07;79.47;;;38.77;;
21601;SDS011;10963;50.934;4.668;2023-02-15T01:33:34;77.93;;;37.93;;
21601;SDS011;10963;50.934;4.668;2023-02-15T01:36:01;81.87;;;38.83;;
21601;SDS011;10963;50.934;4.668;2023-02-15T01:38:29;77.67;;;37.53;;
21601;SDS011;10963;50.934;4.668;2023-02-15T01:40:55;84.03;;;38.03;;
21601;SDS011;10963;50.934;4.668;2023-02-15T01:43:41;74.23;;;36.77;;
21601;SDS011;10963;50.934;4.668;2023-02-15T01:46:09;81.77;;;37.17;;
21601;SDS011;10963;50.934;4.668;2023-02-15T01:48:38;74.83;;;38.93;;
21601;SDS011;10963;50.934;4.668;2023-02-15T01:51:09;81.00;;;39.10;;
21601;SDS011;10963;50.934;4.668;2023-02-15T01:53:41;79.60;;;39.93;;
21601;SDS011;10963;50.934;4.668;2023-02-15T01:56:19;76.50;;;37.77;;
21601;SDS011;10963;50.934;4.668;2023-02-15T01:58:51;80.33;;;37.93;;
21601;SDS011;10963;50.934;4.668;2023-02-15T02:01:25;78.53;;;35.97;;
21601;SDS011;10963;50.934;4.668;2023-02-15T02:06:32;69.70;;;34.90;;
21601;SDS011;10963;50.934;4.668;2023-02-15T02:09:00;71.63;;;35.53;;
21601;SDS011;10963;50.934;4.668;2023-02-15T02:11:26;74.07;;;36.70;;
21601;SDS011;10963;50.934;4.668;2023-02-15T02:13:52;66.83;;;36.17;;
21601;SDS011;10963;50.934;4.668;2023-02-15T02:16:21;72.07;;;36.03;;
21601;SDS011;10963;50.934;4.668;2023-02-15T02:27:56;74.03;;;36.30;;
21601;SDS011;10963;50.934;4.668;2023-02-15T02:39:00;70.80;;;36.03;;
21601;SDS011;10963;50.934;4.668;2023-02-15T02:44:16;70.10;;;33.60;;
21601;SDS011;10963;50.934;4.668;2023-02-15T02:52:46;74.90;;;35.37;;
21601;SDS011;10963;50.934;4.668;2023-02-15T02:55:07;70.20;;;35.73;;
21601;SDS011;10963;50.934;4.668;2023-02-15T02:57:43;76.87;;;35.13;;
21601;SDS011;10963;50.934;4.668;2023-02-15T03:00:36;67.17;;;34.43;;
21601;SDS011;10963;50.934;4.668;2023-02-15T03:03:12;70.37;;;33.50;;
21601;SDS011;10963;50.934;4.668;2023-02-15T03:05:47;68.30;;;35.27;;
21601;SDS011;10963;50.934;4.668;2023-02-15T03:08:18;65.00;;;33.60;;
21601;SDS011;10963;50.934;4.668;2023-02-15T03:10:53;65.60;;;33.53;;
21601;SDS011;10963;50.934;4.668;2023-02-15T03:13:23;72.57;;;35.50;;
21601;SDS011;10963;50.934;4.668;2023-02-15T03:15:51;76.00;;;36.23;;
21601;SDS011;10963;50.934;4.668;2023-02-15T03:18:40;75.53;;;35.20;;
21601;SDS011;10963;50.934;4.668;2023-02-15T03:21:18;76.67;;;33.67;;
21601;SDS011;10963;50.934;4.668;2023-02-15T03:23:53;68.83;;;34.00;;
21601;SDS011;10963;50.934;4.668;2023-02-15T03:26:27;72.30;;;33.23;;
21601;SDS011;10963;50.934;4.668;2023-02-15T03:28:57;67.20;;;33.67;;
21601;SDS011;10963;50.934;4.668;2023-02-15T03:31:31;67.93;;;33.57;;
21601;SDS011;10963;50.934;4.668;2023-02-15T03:34:03;67.60;;;32.97;;
21601;SDS011;10963;50.934;4.668;2023-02-15T03:44:29;75.80;;;34.37;;
21601;SDS011;10963;50.934;4.668;2023-02-15T03:46:59;67.43;;;34.23;;
21601;SDS011;10963;50.934;4.668;2023-02-15T03:51:54;72.70;;;33.80;;
21601;SDS011;10963;50.934;4.668;2023-02-15T03:54:28;70.30;;;31.90;;
21601;SDS011;10963;50.934;4.668;2023-02-15T03:57:15;70.20;;;33.90;;
21601;SDS011;10963;50.934;4.668;2023-02-15T04:00:21;70.17;;;33.20;;
21601;SDS011;10963;50.934;4.668;2023-02-15T04:03:12;66.47;;;31.20;;
21601;SDS011;10963;50.934;4.668;2023-02-15T04:05:48;69.70;;;32.90;;
21601;SDS011;10963;50.934;4.668;2023-02-15T04:08:14;65.30;;;32.00;;
21601;SDS011;10963;50.934;4.668;2023-02-15T04:10:40;67.27;;;34.00;;
21601;SDS011;10963;50.934;4.668;2023-02-15T04:13:21;76.57;;;34.83;;
21601;SDS011;10963;50.934;4.668;2023-02-15T04:15:48;68.73;;;32.97;;
21601;SDS011;10963;50.934;4.668;2023-02-15T04:18:36;67.63;;;33.17;;
21601;SDS011;10963;50.934;4.668;2023-02-15T04:21:22;73.90;;;33.97;;
21601;SDS011;10963;50.934;4.668;2023-02-15T04:24:08;67.60;;;32.50;;
21601;SDS011;10963;50.934;4.668;2023-02-15T04:26:52;79.83;;;34.03;;
21601;SDS011;10963;50.934;4.668;2023-02-15T04:29:21;66.90;;;33.43;;
21601;SDS011;10963;50.934;4.668;2023-02-15T04:31:51;65.93;;;33.27;;
21601;SDS011;10963;50.934;4.668;2023-02-15T04:34:20;66.47;;;33.90;;
21601;SDS011;10963;50.934;4.668;2023-02-15T04:36:46;75.67;;;35.77;;
21601;SDS011;10963;50.934;4.668;2023-02-15T04:39:15;73.67;;;35.37;;
21601;SDS011;10963;50.934;4.668;2023-02-15T04:41:42;79.90;;;35.43;;
21601;SDS011;10963;50.934;4.668;2023-02-15T04:44:08;69.83;;;33.37;;
21601;SDS011;10963;50.934;4.668;2023-02-15T04:46:37;77.77;;;35.37;;
21601;SDS011;10963;50.934;4.668;2023-02-15T04:49:05;75.17;;;35.57;;
21601;SDS011;10963;50.934;4.668;2023-02-15T04:51:30;77.77;;;36.03;;
21601;SDS011;10963;50.934;4.668;2023-02-15T04:53:56;76.47;;;37.10;;
21601;SDS011;10963;50.934;4.668;2023-02-15T04:56:22;70.50;;;34.20;;
21601;SDS011;10963;50.934;4.668;2023-02-15T04:58:48;74.90;;;36.20;;
21601;SDS011;10963;50.934;4.668;2023-02-15T05:01:18;75.87;;;35.57;;
21601;SDS011;10963;50.934;4.668;2023-02-15T05:03:48;76.93;;;35.57;;
21601;SDS011;10963;50.934;4.668;2023-02-15T05:06:16;72.03;;;35.20;;
21601;SDS011;10963;50.934;4.668;2023-02-15T05:08:42;81.03;;;35.40;;
21601;SDS011;10963;50.934;4.668;2023-02-15T05:11:10;73.07;;;35.80;;
21601;SDS011;10963;50.934;4.668;2023-02-15T05:13:38;75.10;;;34.67;;
21601;SDS011;10963;50.934;4.668;2023-02-15T05:16:03;75.10;;;35.13;;
21601;SDS011;10963;50.934;4.668;2023-02-15T05:18:29;77.93;;;34.53;;
21601;SDS011;10963;50.934;4.668;2023-02-15T05:20:55;67.97;;;34.57;;
21601;SDS011;10963;50.934;4.668;2023-02-15T05:23:23;70.87;;;35.63;;
21601;SDS011;10963;50.934;4.668;2023-02-15T05:25:49;75.87;;;34.57;;
21601;SDS011;10963;50.934;4.668;2023-02-15T05:28:36;78.67;;;37.63;;
21601;SDS011;10963;50.934;4.668;2023-02-15T05:31:06;75.73;;;35.10;;
21601;SDS011;10963;50.934;4.668;2023-02-15T05:33:34;70.27;;;34.13;;
21601;SDS011;10963;50.934;4.668;2023-02-15T05:36:01;78.83;;;35.13;;
21601;SDS011;10963;50.934;4.668;2023-02-15T05:38:27;77.20;;;35.03;;
21601;SDS011;10963;50.934;4.668;2023-02-15T05:40:55;75.43;;;36.07;;
21601;SDS011;10963;50.934;4.668;2023-02-15T05:43:23;72.93;;;34.37;;
21601;SDS011;10963;50.934;4.668;2023-02-15T05:45:51;78.57;;;34.03;;
21601;SDS011;10963;50.934;4.668;2023-02-15T05:48:24;77.10;;;35.47;;
21601;SDS011;10963;50.934;4.668;2023-02-15T05:53:27;73.43;;;33.73;;
21601;SDS011;10963;50.934;4.668;2023-02-15T05:55:54;70.70;;;32.33;;
21601;SDS011;10963;50.934;4.668;2023-02-15T05:58:24;71.13;;;32.97;;
21601;SDS011;10963;50.934;4.668;2023-02-15T06:00:54;79.23;;;32.23;;
21601;SDS011;10963;50.934;4.668;2023-02-15T06:03:23;66.30;;;33.40;;
21601;SDS011;10963;50.934;4.668;2023-02-15T06:05:53;69.47;;;33.97;;
21601;SDS011;10963;50.934;4.668;2023-02-15T06:08:19;67.00;;;32.67;;
21601;SDS011;10963;50.934;4.668;2023-02-15T06:10:45;74.43;;;36.13;;
21601;SDS011;10963;50.934;4.668;2023-02-15T06:13:11;73.47;;;34.33;;
21601;SDS011;10963;50.934;4.668;2023-02-15T06:15:44;74.00;;;34.93;;
21601;SDS011;10963;50.934;4.668;2023-02-15T06:18:09;72.40;;;34.47;;
21601;SDS011;10963;50.934;4.668;2023-02-15T06:20:40;71.23;;;34.87;;
21601;SDS011;10963;50.934;4.668;2023-02-15T06:23:05;76.43;;;34.20;;
21601;SDS011;10963;50.934;4.668;2023-02-15T06:25:31;73.43;;;34.23;;
21601;SDS011;10963;50.934;4.668;2023-02-15T06:28:01;75.10;;;34.47;;
21601;SDS011;10963;50.934;4.668;2023-02-15T06:30:27;71.53;;;33.97;;
21601;SDS011;10963;50.934;4.668;2023-02-15T06:32:55;74.67;;;33.83;;
21601;SDS011;10963;50.934;4.668;2023-02-15T06:35:21;70.33;;;33.83;;
21601;SDS011;10963;50.934;4.668;2023-02-15T06:37:47;67.93;;;34.17;;
21601;SDS011;10963;50.934;4.668;2023-02-15T06:40:13;77.17;;;33.93;;
21601;SDS011;10963;50.934;4.668;2023-02-15T06:42:42;73.03;;;33.80;;
21601;SDS011;10963;50.934;4.668;2023-02-15T06:45:10;76.53;;;33.73;;
21601;SDS011;10963;50.934;4.668;2023-02-15T06:47:36;68.90;;;31.77;;
21601;SDS011;10963;50.934;4.668;2023-02-15T06:50:05;71.20;;;33.27;;
21601;SDS011;10963;50.934;4.668;2023-02-15T06:52:36;78.80;;;34.93;;
21601;SDS011;10963;50.934;4.668;2023-02-15T06:55:04;74.83;;;34.23;;
21601;SDS011;10963;50.934;4.668;2023-02-15T06:57:35;84.67;;;36.10;;
21601;SDS011;10963;50.934;4.668;2023-02-15T07:00:03;69.33;;;34.13;;
21601;SDS011;10963;50.934;4.668;2023-02-15T07:02:30;72.47;;;34.27;;
21601;SDS011;10963;50.934;4.668;2023-02-15T07:04:59;73.80;;;33.33;;
21601;SDS011;10963;50.934;4.668;2023-02-15T07:07:24;73.60;;;35.13;;
21601;SDS011;10963;50.934;4.668;2023-02-15T07:09:50;72.37;;;34.03;;
21601;SDS011;10963;50.934;4.668;2023-02-15T07:12:20;76.70;;;36.03;;
21601;SDS011;10963;50.934;4.668;2023-02-15T07:15:05;81.47;;;37.33;;
21601;SDS011;10963;50.934;4.668;2023-02-15T07:17:31;81.33;;;36.13;;
21601;SDS011;10963;50.934;4.668;2023-02-15T07:19:57;74.77;;;36.57;;
21601;SDS011;10963;50.934;4.668;2023-02-15T07:22:25;76.17;;;35.53;;
21601;SDS011;10963;50.934;4.668;2023-02-15T07:24:53;75.83;;;35.40;;
21601;SDS011;10963;50.934;4.668;2023-02-15T07:27:20;76.27;;;34.77;;
21601;SDS011;10963;50.934;4.668;2023-02-15T07:29:49;71.20;;;34.17;;
21601;SDS011;10963;50.934;4.668;2023-02-15T07:32:14;76.93;;;34.50;;
21601;SDS011;10963;50.934;4.668;2023-02-15T07:34:44;74.83;;;35.97;;
21601;SDS011;10963;50.934;4.668;2023-02-15T07:37:12;79.73;;;37.23;;
21601;SDS011;10963;50.934;4.668;2023-02-15T07:39:38;70.23;;;35.90;;
21601;SDS011;10963;50.934;4.668;2023-02-15T07:42:03;71.67;;;35.47;;
21601;SDS011;10963;50.934;4.668;2023-02-15T07:44:31;76.87;;;34.43;;
21601;SDS011;10963;50.934;4.668;2023-02-15T07:46:59;73.87;;;34.20;;
21601;SDS011;10963;50.934;4.668;2023-02-15T07:49:25;78.13;;;36.03;;
21601;SDS011;10963;50.934;4.668;2023-02-15T07:51:55;76.40;;;35.03;;
21601;SDS011;10963;50.934;4.668;2023-02-15T07:54:24;72.10;;;34.33;;
21601;SDS011;10963;50.934;4.668;2023-02-15T07:56:49;75.97;;;34.23;;
21601;SDS011;10963;50.934;4.668;2023-02-15T07:59:17;77.10;;;34.93;;
21601;SDS011;10963;50.934;4.668;2023-02-15T08:01:45;73.83;;;35.53;;
21601;SDS011;10963;50.934;4.668;2023-02-15T08:04:11;71.43;;;33.30;;
21601;SDS011;10963;50.934;4.668;2023-02-15T08:06:39;69.60;;;33.17;;
21601;SDS011;10963;50.934;4.668;2023-02-15T08:09:07;71.50;;;34.13;;
21601;SDS011;10963;50.934;4.668;2023-02-15T08:11:37;73.67;;;35.30;;
21601;SDS011;10963;50.934;4.668;2023-02-15T08:14:06;67.97;;;34.13;;
21601;SDS011;10963;50.934;4.668;2023-02-15T08:19:12;73.83;;;36.20;;
21601;SDS011;10963;50.934;4.668;2023-02-15T08:21:47;66.80;;;34.53;;
21601;SDS011;10963;50.934;4.668;2023-02-15T08:24:26;70.40;;;35.00;;
21601;SDS011;10963;50.934;4.668;2023-02-15T08:26:53;74.47;;;35.47;;
21601;SDS011;10963;50.934;4.668;2023-02-15T08:29:22;71.47;;;35.23;;
21601;SDS011;10963;50.934;4.668;2023-02-15T08:31:50;69.30;;;35.60;;
21601;SDS011;10963;50.934;4.668;2023-02-15T08:34:26;75.33;;;35.50;;
21601;SDS011;10963;50.934;4.668;2023-02-15T08:36:54;73.13;;;35.60;;
21601;SDS011;10963;50.934;4.668;2023-02-15T08:39:22;71.67;;;34.53;;
21601;SDS011;10963;50.934;4.668;2023-02-15T08:41:50;67.23;;;33.83;;
21601;SDS011;10963;50.934;4.668;2023-02-15T08:44:18;69.57;;;34.20;;
21601;SDS011;10963;50.934;4.668;2023-02-15T08:46:46;71.33;;;35.10;;
21601;SDS011;10963;50.934;4.668;2023-02-15T08:49:17;72.37;;;33.70;;
21601;SDS011;10963;50.934;4.668;2023-02-15T08:51:44;67.63;;;33.47;;
21601;SDS011;10963;50.934;4.668;2023-02-15T08:54:15;69.13;;;32.80;;
21601;SDS011;10963;50.934;4.668;2023-02-15T08:56:43;70.70;;;34.07;;
21601;SDS011;10963;50.934;4.668;2023-02-15T08:59:13;69.73;;;32.73;;
21601;SDS011;10963;50.934;4.668;2023-02-15T09:01:47;66.33;;;32.83;;
21601;SDS011;10963;50.934;4.668;2023-02-15T09:04:19;71.40;;;32.60;;
21601;SDS011;10963;50.934;4.668;2023-02-15T09:06:46;68.03;;;31.33;;
21601;SDS011;10963;50.934;4.668;2023-02-15T09:09:16;63.13;;;31.90;;
21601;SDS011;10963;50.934;4.668;2023-02-15T09:11:43;63.60;;;31.33;;
21601;SDS011;10963;50.934;4.668;2023-02-15T09:14:13;64.13;;;30.43;;
21601;SDS011;10963;50.934;4.668;2023-02-15T09:16:41;66.67;;;31.67;;
21601;SDS011;10963;50.934;4.668;2023-02-15T09:19:13;61.33;;;29.47;;
21601;SDS011;10963;50.934;4.668;2023-02-15T09:21:42;59.10;;;29.43;;
21601;SDS011;10963;50.934;4.668;2023-02-15T09:24:14;60.60;;;29.53;;
21601;SDS011;10963;50.934;4.668;2023-02-15T09:26:42;56.67;;;30.70;;
21601;SDS011;10963;50.934;4.668;2023-02-15T09:29:15;56.63;;;29.40;;
21601;SDS011;10963;50.934;4.668;2023-02-15T09:31:48;48.90;;;26.90;;
21601;SDS011;10963;50.934;4.668;2023-02-15T09:34:16;50.17;;;27.07;;
21601;SDS011;10963;50.934;4.668;2023-02-15T09:36:43;51.67;;;26.73;;
21601;SDS011;10963;50.934;4.668;2023-02-15T10:05:53;47.30;;;23.60;;
21601;SDS011;10963;50.934;4.668;2023-02-15T10:19:34;41.50;;;22.60;;
21601;SDS011;10963;50.934;4.668;2023-02-15T10:27:49;43.40;;;23.63;;
21601;SDS011;10963;50.934;4.668;2023-02-15T10:38:18;46.10;;;23.17;;
21601;SDS011;10963;50.934;4.668;2023-02-15T10:44:12;47.20;;;24.87;;
21601;SDS011;10963;50.934;4.668;2023-02-15T10:52:25;48.27;;;24.90;;
21601;SDS011;10963;50.934;4.668;2023-02-15T11:00:35;46.60;;;24.20;;
21601;SDS011;10963;50.934;4.668;2023-02-15T11:04:04;45.27;;;23.73;;
21601;SDS011;10963;50.934;4.668;2023-02-15T11:06:28;48.47;;;23.70;;
21601;SDS011;10963;50.934;4.668;2023-02-15T11:09:00;46.97;;;23.83;;
21601;SDS011;10963;50.934;4.668;2023-02-15T11:11:34;43.77;;;23.53;;
21601;SDS011;10963;50.934;4.668;2023-02-15T11:14:55;46.40;;;24.73;;
21601;SDS011;10963;50.934;4.668;2023-02-15T11:17:05;45.83;;;23.80;;
21601;SDS011;10963;50.934;4.668;2023-02-15T11:19:35;46.63;;;23.00;;
21601;SDS011;10963;50.934;4.668;2023-02-15T11:22:06;43.67;;;23.87;;
21601;SDS011;10963;50.934;4.668;2023-02-15T11:24:41;47.47;;;24.60;;
21601;SDS011;10963;50.934;4.668;2023-02-15T11:32:37;43.10;;;23.07;;
21601;SDS011;10963;50.934;4.668;2023-02-15T11:40:26;44.27;;;21.80;;
21601;SDS011;10963;50.934;4.668;2023-02-15T11:42:57;40.43;;;23.50;;
21601;SDS011;10963;50.934;4.668;2023-02-15T11:45:32;44.00;;;23.33;;
21601;SDS011;10963;50.934;4.668;2023-02-15T11:48:13;49.73;;;23.23;;
21601;SDS011;10963;50.934;4.668;2023-02-15T11:50:45;42.37;;;23.07;;
21601;SDS011;10963;50.934;4.668;2023-02-15T11:53:18;44.37;;;24.07;;
21601;SDS011;10963;50.934;4.668;2023-02-15T11:55:52;45.80;;;23.67;;
21601;SDS011;10963;50.934;4.668;2023-02-15T12:01:09;45.73;;;23.97;;
21601;SDS011;10963;50.934;4.668;2023-02-15T12:03:51;43.83;;;22.60;;
21601;SDS011;10963;50.934;4.668;2023-02-15T12:08:54;47.47;;;23.83;;
21601;SDS011;10963;50.934;4.668;2023-02-15T12:11:43;43.50;;;21.53;;
21601;SDS011;10963;50.934;4.668;2023-02-15T12:14:10;46.50;;;23.03;;
21601;SDS011;10963;50.934;4.668;2023-02-15T12:21:58;48.90;;;23.73;;
21601;SDS011;10963;50.934;4.668;2023-02-15T12:24:38;43.33;;;22.67;;
21601;SDS011;10963;50.934;4.668;2023-02-15T12:29:41;47.13;;;24.10;;
21601;SDS011;10963;50.934;4.668;2023-02-15T12:32:33;46.77;;;24.67;;
21601;SDS011;10963;50.934;4.668;2023-02-15T12:35:02;45.53;;;24.77;;
21601;SDS011;10963;50.934;4.668;2023-02-15T12:37:37;41.93;;;23.43;;
21601;SDS011;10963;50.934;4.668;2023-02-15T12:40:25;46.93;;;24.33;;
21601;SDS011;10963;50.934;4.668;2023-02-15T12:42:54;43.43;;;24.27;;
21601;SDS011;10963;50.934;4.668;2023-02-15T12:45:25;44.87;;;24.17;;
21601;SDS011;10963;50.934;4.668;2023-02-15T12:50:45;42.63;;;23.57;;
21601;SDS011;10963;50.934;4.668;2023-02-15T13:01:03;49.40;;;24.97;;
21601;SDS011;10963;50.934;4.668;2023-02-15T13:03:38;46.20;;;23.83;;
21601;SDS011;10963;50.934;4.668;2023-02-15T13:06:19;51.53;;;25.13;;
21601;SDS011;10963;50.934;4.668;2023-02-15T13:08:51;46.47;;;24.87;;
21601;SDS011;10963;50.934;4.668;2023-02-15T13:11:29;47.13;;;24.27;;
21601;SDS011;10963;50.934;4.668;2023-02-15T13:16:46;46.70;;;23.27;;
21601;SDS011;10963;50.934;4.668;2023-02-15T13:19:17;46.57;;;24.07;;
21601;SDS011;10963;50.934;4.668;2023-02-15T13:21:44;44.70;;;24.00;;
21601;SDS011;10963;50.934;4.668;2023-02-15T13:24:26;44.73;;;24.47;;
21601;SDS011;10963;50.934;4.668;2023-02-15T13:26:55;48.63;;;24.80;;
21601;SDS011;10963;50.934;4.668;2023-02-15T13:29:23;46.87;;;23.77;;
21601;SDS011;10963;50.934;4.668;2023-02-15T13:31:53;44.20;;;24.43;;
21601;SDS011;10963;50.934;4.668;2023-02-15T13:34:24;49.87;;;24.97;;
21601;SDS011;10963;50.934;4.668;2023-02-15T13:37:17;42.43;;;23.77;;
21601;SDS011;10963;50.934;4.668;2023-02-15T13:42:30;43.37;;;23.20;;
21601;SDS011;10963;50.934;4.668;2023-02-15T14:07:26;48.60;;;24.87;;
21601;SDS011;10963;50.934;4.668;2023-02-15T14:31:42;47.33;;;25.53;;
21601;SDS011;10963;50.934;4.668;2023-02-15T14:34:18;51.53;;;27.40;;
21601;SDS011;10963;50.934;4.668;2023-02-15T14:36:48;48.63;;;27.00;;
21601;SDS011;10963;50.934;4.668;2023-02-15T14:39:23;52.97;;;25.97;;
21601;SDS011;10963;50.934;4.668;2023-02-15T14:45:49;47.57;;;25.00;;
21601;SDS011;10963;50.934;4.668;2023-02-15T14:51:06;48.37;;;25.40;;
21601;SDS011;10963;50.934;4.668;2023-02-15T14:53:33;48.60;;;24.87;;
21601;SDS011;10963;50.934;4.668;2023-02-15T14:58:35;50.10;;;25.87;;
21601;SDS011;10963;50.934;4.668;2023-02-15T15:01:06;51.47;;;24.93;;
21601;SDS011;10963;50.934;4.668;2023-02-15T15:03:34;49.17;;;24.80;;
21601;SDS011;10963;50.934;4.668;2023-02-15T15:06:04;45.27;;;25.07;;
21601;SDS011;10963;50.934;4.668;2023-02-15T15:13:57;46.67;;;25.77;;
21601;SDS011;10963;50.934;4.668;2023-02-15T15:19:09;55.23;;;27.20;;
21601;SDS011;10963;50.934;4.668;2023-02-15T15:35:22;59.77;;;30.70;;
21601;SDS011;10963;50.934;4.668;2023-02-15T15:49:12;49.43;;;27.10;;
21601;SDS011;10963;50.934;4.668;2023-02-15T15:51:47;57.30;;;29.20;;
21601;SDS011;10963;50.934;4.668;2023-02-15T15:54:19;54.23;;;28.23;;
21601;SDS011;10963;50.934;4.668;2023-02-15T15:56:48;54.10;;;30.27;;
21601;SDS011;10963;50.934;4.668;2023-02-15T15:59:27;55.57;;;29.53;;
21601;SDS011;10963;50.934;4.668;2023-02-15T16:02:03;50.37;;;28.60;;
21601;SDS011;10963;50.934;4.668;2023-02-15T16:04:31;59.80;;;29.33;;
21601;SDS011;10963;50.934;4.668;2023-02-15T16:07:13;55.53;;;28.87;;
21601;SDS011;10963;50.934;4.668;2023-02-15T16:09:39;53.23;;;28.30;;
21601;SDS011;10963;50.934;4.668;2023-02-15T16:12:18;53.50;;;28.93;;
21601;SDS011;10963;50.934;4.668;2023-02-15T16:14:50;56.37;;;29.23;;
21601;SDS011;10963;50.934;4.668;2023-02-15T16:17:22;50.50;;;28.30;;
21601;SDS011;10963;50.934;4.668;2023-02-15T16:19:51;63.47;;;30.13;;
21601;SDS011;10963;50.934;4.668;2023-02-15T16:22:23;55.23;;;29.50;;
21601;SDS011;10963;50.934;4.668;2023-02-15T16:27:43;50.83;;;28.93;;
21601;SDS011;10963;50.934;4.668;2023-02-15T16:30:22;51.70;;;28.50;;
21601;SDS011;10963;50.934;4.668;2023-02-15T16:33:03;54.33;;;29.03;;
21601;SDS011;10963;50.934;4.668;2023-02-15T16:35:55;54.00;;;29.50;;
21601;SDS011;10963;50.934;4.668;2023-02-15T16:41:15;56.00;;;29.60;;
21601;SDS011;10963;50.934;4.668;2023-02-15T16:43:45;55.13;;;29.00;;
21601;SDS011;10963;50.934;4.668;2023-02-15T16:46:17;54.13;;;26.63;;
21601;SDS011;10963;50.934;4.668;2023-02-15T16:48:52;54.33;;;30.20;;
21601;SDS011;10963;50.934;4.668;2023-02-15T16:51:24;57.63;;;30.03;;
21601;SDS011;10963;50.934;4.668;2023-02-15T16:53:53;52.47;;;28.30;;
21601;SDS011;10963;50.934;4.668;2023-02-15T16:56:24;51.40;;;28.60;;
21601;SDS011;10963;50.934;4.668;2023-02-15T16:58:55;56.10;;;28.50;;
21601;SDS011;10963;50.934;4.668;2023-02-15T17:01:23;56.90;;;30.40;;
21601;SDS011;10963;50.934;4.668;2023-02-15T17:07:16;59.80;;;30.43;;
21601;SDS011;10963;50.934;4.668;2023-02-15T17:20:48;68.17;;;35.17;;
21601;SDS011;10963;50.934;4.668;2023-02-15T17:23:33;57.23;;;29.43;;
21601;SDS011;10963;50.934;4.668;2023-02-15T17:26:17;62.63;;;36.77;;
21601;SDS011;10963;50.934;4.668;2023-02-15T17:28:54;55.23;;;29.10;;
21601;SDS011;10963;50.934;4.668;2023-02-15T17:31:22;55.13;;;29.60;;
21601;SDS011;10963;50.934;4.668;2023-02-15T17:33:54;64.70;;;32.03;;
21601;SDS011;10963;50.934;4.668;2023-02-15T17:36:24;56.40;;;30.87;;
21601;SDS011;10963;50.934;4.668;2023-02-15T17:41:25;61.23;;;32.20;;
21601;SDS011;10963;50.934;4.668;2023-02-15T17:43:56;81.10;;;41.53;;
21601;SDS011;10963;50.934;4.668;2023-02-15T17:46:22;89.33;;;44.60;;
21601;SDS011;10963;50.934;4.668;2023-02-15T17:48:49;80.07;;;40.27;;
21601;SDS011;10963;50.934;4.668;2023-02-15T17:51:20;98.07;;;46.10;;
21601;SDS011;10963;50.934;4.668;2023-02-15T17:53:46;84.70;;;42.27;;
21601;SDS011;10963;50.934;4.668;2023-02-15T17:56:31;96.97;;;49.90;;
21601;SDS011;10963;50.934;4.668;2023-02-15T17:58:58;97.60;;;54.00;;
21601;SDS011;10963;50.934;4.668;2023-02-15T18:01:24;90.60;;;52.40;;
21601;SDS011;10963;50.934;4.668;2023-02-15T18:04:08;85.97;;;42.60;;
21601;SDS011;10963;50.934;4.668;2023-02-15T18:06:57;71.33;;;37.77;;
21601;SDS011;10963;50.934;4.668;2023-02-15T18:09:44;97.77;;;53.53;;
21601;SDS011;10963;50.934;4.668;2023-02-15T18:12:30;79.63;;;42.57;;
21601;SDS011;10963;50.934;4.668;2023-02-15T18:15:06;75.83;;;40.70;;
21601;SDS011;10963;50.934;4.668;2023-02-15T18:20:01;81.37;;;44.40;;
21601;SDS011;10963;50.934;4.668;2023-02-15T18:22:29;79.43;;;42.53;;
21601;SDS011;10963;50.934;4.668;2023-02-15T18:24:58;80.23;;;40.47;;
21601;SDS011;10963;50.934;4.668;2023-02-15T18:27:26;77.97;;;41.63;;
21601;SDS011;10963;50.934;4.668;2023-02-15T18:29:54;88.97;;;45.27;;
21601;SDS011;10963;50.934;4.668;2023-02-15T18:32:27;91.67;;;52.13;;
21601;SDS011;10963;50.934;4.668;2023-02-15T18:35:00;101.93;;;58.70;;
21601;SDS011;10963;50.934;4.668;2023-02-15T18:37:29;81.93;;;49.30;;
21601;SDS011;10963;50.934;4.668;2023-02-15T18:39:59;89.03;;;51.90;;
21601;SDS011;10963;50.934;4.668;2023-02-15T18:44:56;83.27;;;45.07;;
21601;SDS011;10963;50.934;4.668;2023-02-15T18:47:24;82.20;;;42.57;;
21601;SDS011;10963;50.934;4.668;2023-02-15T18:49:52;83.97;;;49.73;;
21601;SDS011;10963;50.934;4.668;2023-02-15T18:52:19;81.03;;;44.33;;
21601;SDS011;10963;50.934;4.668;2023-02-15T18:54:53;89.80;;;47.23;;
21601;SDS011;10963;50.934;4.668;2023-02-15T18:57:22;78.13;;;43.93;;
21601;SDS011;10963;50.934;4.668;2023-02-15T18:59:48;78.17;;;41.40;;
21601;SDS011;10963;50.934;4.668;2023-02-15T19:02:14;74.83;;;38.40;;
21601;SDS011;10963;50.934;4.668;2023-02-15T19:04:42;65.43;;;36.90;;
21601;SDS011;10963;50.934;4.668;2023-02-15T19:09:55;75.47;;;39.23;;
21601;SDS011;10963;50.934;4.668;2023-02-15T19:12:26;80.93;;;40.57;;